sensor_id;sensor_type;location;lat;lon;timestamp;pressure;altitude;pressure_sealevel;temperature;humidity
85746;BME280;76186;47.590;19.194;2024-03-08T00:00:35;100174.50;;;4.61;95.86
85746;BME280;76186;47.590;19.194;2024-03-08T00:01:35;100180.97;;;4.65;95.38
85746;BME280;76186;47.590;19.194;2024-03-08T00:02:36;100177.44;;;4.60;95.14
85746;BME280;76186;47.590;19.194;2024-03-08T00:03:37;100178.25;;;4.60;95.48
85746;BME280;76186;47.590;19.194;2024-03-08T00:04:38;100176.09;;;4.62;95.86
85746;BME280;76186;47.590;19.194;2024-03-08T00:05:38;100181.47;;;4.62;95.88
85746;BME280;76186;47.590;19.194;2024-03-08T00:06:39;100178.25;;;4.60;95.83
85746;BME280;76186;47.590;19.194;2024-03-08T00:07:41;100175.50;;;4.55;96.12
85746;BME280;76186;47.590;19.194;2024-03-08T00:08:42;100171.25;;;4.59;95.73
85746;BME280;76186;47.590;19.194;2024-03-08T00:09:42;100176.09;;;4.62;95.66
85746;BME280;76186;47.590;19.194;2024-03-08T00:10:43;100176.91;;;4.63;95.65
85746;BME280;76186;47.590;19.194;2024-03-08T00:11:44;100171.53;;;4.63;95.86
85746;BME280;76186;47.590;19.194;2024-03-08T00:12:45;100177.47;;;4.65;95.78
85746;BME280;76186;47.590;19.194;2024-03-08T00:13:46;100178.28;;;4.65;95.33
85746;BME280;76186;47.590;19.194;2024-03-08T00:14:47;100173.97;;;4.64;95.96
85746;BME280;76186;47.590;19.194;2024-03-08T00:15:47;100176.09;;;4.62;95.45
85746;BME280;76186;47.590;19.194;2024-03-08T00:16:48;100185.78;;;4.58;95.25
85746;BME280;76186;47.590;19.194;2024-03-08T00:17:49;100179.53;;;4.53;95.58
85746;BME280;76186;47.590;19.194;2024-03-08T00:18:49;100183.34;;;4.57;95.91
85746;BME280;76186;47.590;19.194;2024-03-08T00:19:50;100174.69;;;4.55;96.10
85746;BME280;76186;47.590;19.194;2024-03-08T00:20:51;100180.09;;;4.55;95.60
85746;BME280;76186;47.590;19.194;2024-03-08T00:21:51;100176.88;;;4.58;95.89
85746;BME280;76186;47.590;19.194;2024-03-08T00:22:52;100175.50;;;4.55;95.94
85746;BME280;76186;47.590;19.194;2024-03-08T00:23:53;100175.50;;;4.55;95.83
85746;BME280;76186;47.590;19.194;2024-03-08T00:24:56;100176.38;;;4.61;95.99
85746;BME280;76186;47.590;19.194;2024-03-08T00:25:56;100182.34;;;4.68;96.05
85746;BME280;76186;47.590;19.194;2024-03-08T00:26:57;100180.19;;;4.70;95.94
85746;BME280;76186;47.590;19.194;2024-03-08T00:27:59;100176.66;;;4.64;95.89
85746;BME280;76186;47.590;19.194;2024-03-08T00:29:00;100176.63;;;4.59;95.69
85746;BME280;76186;47.590;19.194;2024-03-08T00:30:01;100173.69;;;4.61;95.76
85746;BME280;76186;47.590;19.194;2024-03-08T00:31:01;100167.47;;;4.60;95.83
85746;BME280;76186;47.590;19.194;2024-03-08T00:32:02;100177.72;;;4.63;95.68
85746;BME280;76186;47.590;19.194;2024-03-08T00:33:03;100166.13;;;4.63;95.72
85746;BME280;76186;47.590;19.194;2024-03-08T00:34:03;100168.00;;;4.62;95.47
85746;BME280;76186;47.590;19.194;2024-03-08T00:35:04;100175.31;;;4.62;96.06
85746;BME280;76186;47.590;19.194;2024-03-08T00:36:07;100174.50;;;4.61;95.68
85746;BME280;76186;47.590;19.194;2024-03-08T00:37:08;100169.91;;;4.62;95.81
85746;BME280;76186;47.590;19.194;2024-03-08T00:38:08;100172.88;;;4.60;95.88
85746;BME280;76186;47.590;19.194;2024-03-08T00:39:09;100169.06;;;4.56;96.05
85746;BME280;76186;47.590;19.194;2024-03-08T00:40:10;100171.25;;;4.59;95.56
85746;BME280;76186;47.590;19.194;2024-03-08T00:41:11;100163.72;;;4.61;95.77
85746;BME280;76186;47.590;19.194;2024-03-08T00:42:11;100168.00;;;4.57;95.94
85746;BME280;76186;47.590;19.194;2024-03-08T00:43:12;100163.72;;;4.61;95.73
85746;BME280;76186;47.590;19.194;2024-03-08T00:44:13;100162.38;;;4.64;95.39
85746;BME280;76186;47.590;19.194;2024-03-08T00:45:14;100159.94;;;4.62;95.65
85746;BME280;76186;47.590;19.194;2024-03-08T00:46:14;100161.28;;;4.60;95.51
85746;BME280;76186;47.590;19.194;2024-03-08T00:47:15;100158.84;;;4.58;95.79
85746;BME280;76186;47.590;19.194;2024-03-08T00:48:16;100159.91;;;4.57;95.78
85746;BME280;76186;47.590;19.194;2024-03-08T00:49:16;100162.59;;;4.57;95.48
85746;BME280;76186;47.590;19.194;2024-03-08T00:50:17;100162.34;;;4.59;95.86
85746;BME280;76186;47.590;19.194;2024-03-08T00:51:18;100158.34;;;4.61;96.02
85746;BME280;76186;47.590;19.194;2024-03-08T00:52:19;100150.78;;;4.63;95.87
85746;BME280;76186;47.590;19.194;2024-03-08T00:53:19;100158.59;;;4.65;95.61
85746;BME280;76186;47.590;19.194;2024-03-08T00:54:20;100151.59;;;4.64;95.64
85746;BME280;76186;47.590;19.194;2024-03-08T00:55:20;100153.75;;;4.62;95.45
85746;BME280;76186;47.590;19.194;2024-03-08T00:56:21;100153.22;;;4.65;95.82
85746;BME280;76186;47.590;19.194;2024-03-08T00:57:21;100156.97;;;4.64;95.43
85746;BME280;76186;47.590;19.194;2024-03-08T00:58:22;100159.94;;;4.62;95.65
85746;BME280;76186;47.590;19.194;2024-03-08T00:59:24;100159.16;;;4.62;95.77
85746;BME280;76186;47.590;19.194;2024-03-08T01:00:24;100154.53;;;4.62;95.44
85746;BME280;76186;47.590;19.194;2024-03-08T01:01:25;100155.91;;;4.60;95.17
85746;BME280;76186;47.590;19.194;2024-03-08T01:02:26;100153.47;;;4.58;95.60
85746;BME280;76186;47.590;19.194;2024-03-08T01:03:27;100148.78;;;4.49;95.70
85746;BME280;76186;47.590;19.194;2024-03-08T01:04:27;100156.66;;;4.55;96.64
85746;BME280;76186;47.590;19.194;2024-03-08T01:05:32;100151.06;;;4.62;95.76
85746;BME280;76186;47.590;19.194;2024-03-08T01:06:33;100145.13;;;4.60;95.61
85746;BME280;76186;47.590;19.194;2024-03-08T01:07:34;100154.81;;;4.61;95.49
85746;BME280;76186;47.590;19.194;2024-03-08T01:08:35;100154.84;;;4.66;95.86
85746;BME280;76186;47.590;19.194;2024-03-08T01:09:38;100147.56;;;4.61;95.27
85746;BME280;76186;47.590;19.194;2024-03-08T01:10:39;100148.56;;;4.55;95.20
85746;BME280;76186;47.590;19.194;2024-03-08T01:11:39;100152.34;;;4.54;95.59
85746;BME280;76186;47.590;19.194;2024-03-08T01:12:40;100153.97;;;4.55;96.32
85746;BME280;76186;47.590;19.194;2024-03-08T01:13:40;100147.50;;;4.56;96.30
85746;BME280;76186;47.590;19.194;2024-03-08T01:14:41;100152.84;;;4.51;96.30
85746;BME280;76186;47.590;19.194;2024-03-08T01:15:42;100151.78;;;4.52;96.42
85746;BME280;76186;47.590;19.194;2024-03-08T01:16:42;100152.34;;;4.54;96.03
85746;BME280;76186;47.590;19.194;2024-03-08T01:17:43;100148.28;;;4.52;96.53
85746;BME280;76186;47.590;19.194;2024-03-08T01:18:44;100150.72;;;4.53;96.74
85746;BME280;76186;47.590;19.194;2024-03-08T01:19:45;100148.56;;;4.55;96.60
85746;BME280;76186;47.590;19.194;2024-03-08T01:20:45;100155.59;;;4.56;96.53
85746;BME280;76186;47.590;19.194;2024-03-08T01:21:46;100143.69;;;4.52;96.26
85746;BME280;76186;47.590;19.194;2024-03-08T01:22:47;100151.00;;;4.57;96.57
85746;BME280;76186;47.590;19.194;2024-03-08T01:23:48;100152.94;;;4.61;96.53
85746;BME280;76186;47.590;19.194;2024-03-08T01:24:48;100149.69;;;4.59;95.82
85746;BME280;76186;47.590;19.194;2024-03-08T01:25:49;100148.09;;;4.63;96.26
85746;BME280;76186;47.590;19.194;2024-03-08T01:26:56;100151.84;;;4.62;96.14
85746;BME280;76186;47.590;19.194;2024-03-08T01:27:57;100157.78;;;4.64;95.68
85746;BME280;76186;47.590;19.194;2024-03-08T01:28:57;100157.22;;;4.57;95.92
85746;BME280;76186;47.590;19.194;2024-03-08T01:29:59;100156.66;;;4.55;96.12
85746;BME280;76186;47.590;19.194;2024-03-08T01:31:00;100157.78;;;4.59;95.63
85746;BME280;76186;47.590;19.194;2024-03-08T01:32:00;100152.66;;;4.63;95.78
85746;BME280;76186;47.590;19.194;2024-03-08T01:33:02;100144.06;;;4.66;95.41
85746;BME280;76186;47.590;19.194;2024-03-08T01:34:02;100155.63;;;4.61;95.83
85746;BME280;76186;47.590;19.194;2024-03-08T01:35:03;100152.41;;;4.64;95.69
85746;BME280;76186;47.590;19.194;2024-03-08T01:36:04;100139.50;;;4.66;96.05
85746;BME280;76186;47.590;19.194;2024-03-08T01:37:05;100151.88;;;4.67;96.45
85746;BME280;76186;47.590;19.194;2024-03-08T01:38:06;100151.84;;;4.62;95.97
85746;BME280;76186;47.590;19.194;2024-03-08T01:39:07;100147.06;;;4.69;95.79
85746;BME280;76186;47.590;19.194;2024-03-08T01:40:08;100142.22;;;4.71;95.82
85746;BME280;76186;47.590;19.194;2024-03-08T01:41:11;100136.78;;;4.66;95.76
85746;BME280;76186;47.590;19.194;2024-03-08T01:42:13;100146.53;;;4.72;95.89
85746;BME280;76186;47.590;19.194;2024-03-08T01:44:19;100144.38;;;4.69;95.45
85746;BME280;76186;47.590;19.194;2024-03-08T01:45:20;100141.41;;;4.71;95.78
85746;BME280;76186;47.590;19.194;2024-03-08T01:46:21;100144.31;;;4.64;95.02
85746;BME280;76186;47.590;19.194;2024-03-08T01:47:22;100145.13;;;4.60;96.08
85746;BME280;76186;47.590;19.194;2024-03-08T01:48:23;100142.75;;;4.68;95.97
85746;BME280;76186;47.590;19.194;2024-03-08T01:49:26;100144.91;;;4.71;96.23
85746;BME280;76186;47.590;19.194;2024-03-08T01:50:27;100144.66;;;4.73;95.85
85746;BME280;76186;47.590;19.194;2024-03-08T01:51:28;100138.69;;;4.66;96.24
85746;BME280;76186;47.590;19.194;2024-03-08T01:52:29;100140.00;;;4.63;95.93
85746;BME280;76186;47.590;19.194;2024-03-08T01:53:31;100153.19;;;4.60;96.56
85746;BME280;76186;47.590;19.194;2024-03-08T01:54:33;100144.06;;;4.66;96.47
85746;BME280;76186;47.590;19.194;2024-03-08T01:55:36;100137.88;;;4.65;96.21
85746;BME280;76186;47.590;19.194;2024-03-08T01:56:38;100141.63;;;4.64;96.41
85746;BME280;76186;47.590;19.194;2024-03-08T01:57:39;100149.75;;;4.69;95.86
85746;BME280;76186;47.590;19.194;2024-03-08T01:58:41;100149.13;;;4.57;95.76
85746;BME280;76186;47.590;19.194;2024-03-08T01:59:45;100143.75;;;4.57;95.79
85746;BME280;76186;47.590;19.194;2024-03-08T02:00:48;100148.63;;;4.60;95.66
85746;BME280;76186;47.590;19.194;2024-03-08T02:01:55;100144.22;;;4.49;96.55
85746;BME280;76186;47.590;19.194;2024-03-08T02:02:57;100149.16;;;4.62;96.55
85746;BME280;76186;47.590;19.194;2024-03-08T02:03:58;100145.94;;;4.60;95.87
85746;BME280;76186;47.590;19.194;2024-03-08T02:05:00;100151.88;;;4.67;95.66
85746;BME280;76186;47.590;19.194;2024-03-08T02:06:01;100147.00;;;4.59;95.11
85746;BME280;76186;47.590;19.194;2024-03-08T02:07:01;100148.53;;;4.50;95.50
85746;BME280;76186;47.590;19.194;2024-03-08T02:08:02;100145.84;;;4.50;96.22
85746;BME280;76186;47.590;19.194;2024-03-08T02:09:03;100150.16;;;4.51;95.85
85746;BME280;76186;47.590;19.194;2024-03-08T02:10:08;100141.06;;;4.57;96.39
85746;BME280;76186;47.590;19.194;2024-03-08T02:11:08;100144.06;;;4.61;96.34
85746;BME280;76186;47.590;19.194;2024-03-08T02:12:10;100138.38;;;4.57;96.01
85746;BME280;76186;47.590;19.194;2024-03-08T02:13:11;100139.19;;;4.63;95.38
85746;BME280;76186;47.590;19.194;2024-03-08T02:14:12;100145.19;;;4.70;95.37
85746;BME280;76186;47.590;19.194;2024-03-08T02:15:12;100143.03;;;4.72;95.03
85746;BME280;76186;47.590;19.194;2024-03-08T02:16:20;100142.78;;;4.73;95.42
85746;BME280;76186;47.590;19.194;2024-03-08T02:17:21;100144.38;;;4.69;95.69
85746;BME280;76186;47.590;19.194;2024-03-08T02:18:23;100139.50;;;4.66;95.71
85746;BME280;76186;47.590;19.194;2024-03-08T02:19:24;100141.88;;;4.63;95.82
85746;BME280;76186;47.590;19.194;2024-03-08T02:20:28;100141.88;;;4.58;95.94
85746;BME280;76186;47.590;19.194;2024-03-08T02:21:29;100141.06;;;4.57;95.54
85746;BME280;76186;47.590;19.194;2024-03-08T02:22:31;100141.88;;;4.63;96.10
85746;BME280;76186;47.590;19.194;2024-03-08T02:23:34;100146.44;;;4.57;95.91
85746;BME280;76186;47.590;19.194;2024-03-08T02:24:35;100149.41;;;4.56;96.22
85746;BME280;76186;47.590;19.194;2024-03-08T02:25:36;100148.78;;;4.49;95.49
85746;BME280;76186;47.590;19.194;2024-03-08T02:26:37;100146.19;;;4.59;96.05
85746;BME280;76186;47.590;19.194;2024-03-08T02:27:37;100143.00;;;4.67;95.97
85746;BME280;76186;47.590;19.194;2024-03-08T02:28:39;100143.84;;;4.72;95.18
85746;BME280;76186;47.590;19.194;2024-03-08T02:29:42;100147.66;;;4.77;94.92
85746;BME280;76186;47.590;19.194;2024-03-08T02:30:45;100151.97;;;4.78;95.02
85746;BME280;76186;47.590;19.194;2024-03-08T02:31:51;100147.41;;;4.78;95.05
85746;BME280;76186;47.590;19.194;2024-03-08T02:32:52;100151.38;;;4.70;95.51
85746;BME280;76186;47.590;19.194;2024-03-08T02:33:52;100148.63;;;4.65;95.64
85746;BME280;76186;47.590;19.194;2024-03-08T02:34:56;100151.69;;;4.74;94.63
85746;BME280;76186;47.590;19.194;2024-03-08T02:36:00;100150.06;;;4.73;94.81
85746;BME280;76186;47.590;19.194;2024-03-08T02:37:01;100147.69;;;4.82;94.86
85746;BME280;76186;47.590;19.194;2024-03-08T02:38:03;100145.06;;;4.92;93.87
85746;BME280;76186;47.590;19.194;2024-03-08T02:39:04;100140.09;;;4.73;92.31
85746;BME280;76186;47.590;19.194;2024-03-08T02:40:06;100145.31;;;4.53;92.17
85746;BME280;76186;47.590;19.194;2024-03-08T02:41:07;100151.56;;;4.59;93.20
85746;BME280;76186;47.590;19.194;2024-03-08T02:42:09;100151.22;;;4.50;92.46
85746;BME280;76186;47.590;19.194;2024-03-08T02:43:10;100147.94;;;4.43;92.00
85746;BME280;76186;47.590;19.194;2024-03-08T02:44:11;100150.16;;;4.51;92.04
85746;BME280;76186;47.590;19.194;2024-03-08T02:45:12;100147.66;;;4.45;92.36
85746;BME280;76186;47.590;19.194;2024-03-08T02:46:13;100149.81;;;4.43;92.73
85746;BME280;76186;47.590;19.194;2024-03-08T02:47:13;100147.88;;;4.38;93.17
85746;BME280;76186;47.590;19.194;2024-03-08T02:48:15;100148.94;;;4.32;92.63
85746;BME280;76186;47.590;19.194;2024-03-08T02:49:16;100152.94;;;4.29;93.26
85746;BME280;76186;47.590;19.194;2024-03-08T02:50:17;100151.13;;;4.40;91.59
85746;BME280;76186;47.590;19.194;2024-03-08T02:51:17;100150.00;;;4.31;92.12
85746;BME280;76186;47.590;19.194;2024-03-08T02:52:18;100145.94;;;4.28;91.27
85746;BME280;76186;47.590;19.194;2024-03-08T02:53:21;100145.31;;;4.21;90.89
85746;BME280;76186;47.590;19.194;2024-03-08T02:54:22;100139.69;;;4.23;91.96
85746;BME280;76186;47.590;19.194;2024-03-08T02:55:24;100146.31;;;4.15;92.64
85746;BME280;76186;47.590;19.194;2024-03-08T02:56:26;100141.88;;;4.26;91.47
85746;BME280;76186;47.590;19.194;2024-03-08T02:57:26;100150.00;;;4.31;90.65
85746;BME280;76186;47.590;19.194;2024-03-08T02:58:27;100144.81;;;4.24;90.56
85746;BME280;76186;47.590;19.194;2024-03-08T02:59:28;100150.50;;;4.28;90.72
85746;BME280;76186;47.590;19.194;2024-03-08T03:00:29;100143.75;;;4.25;90.84
85746;BME280;76186;47.590;19.194;2024-03-08T03:01:31;100150.34;;;4.13;90.84
85746;BME280;76186;47.590;19.194;2024-03-08T03:02:33;100143.44;;;4.22;90.34
85746;BME280;76186;47.590;19.194;2024-03-08T03:03:34;100141.94;;;4.04;91.18
85746;BME280;76186;47.590;19.194;2024-03-08T03:04:34;100155.31;;;4.26;90.75
85746;BME280;76186;47.590;19.194;2024-03-08T03:05:35;100147.69;;;4.18;90.69
85746;BME280;76186;47.590;19.194;2024-03-08T03:06:36;100149.03;;;4.15;91.13
85746;BME280;76186;47.590;19.194;2024-03-08T03:07:36;100149.06;;;4.20;91.15
85746;BME280;76186;47.590;19.194;2024-03-08T03:08:37;100151.47;;;4.17;91.25
85746;BME280;76186;47.590;19.194;2024-03-08T03:09:39;100149.31;;;4.19;90.75
85746;BME280;76186;47.590;19.194;2024-03-08T03:10:39;100153.59;;;4.15;91.52
85746;BME280;76186;47.590;19.194;2024-03-08T03:11:43;100147.81;;;4.28;90.37
85746;BME280;76186;47.590;19.194;2024-03-08T03:12:45;100156.91;;;4.22;91.76
85746;BME280;76186;47.590;19.194;2024-03-08T03:13:46;100152.00;;;4.19;91.73
85746;BME280;76186;47.590;19.194;2024-03-08T03:14:48;100152.31;;;4.22;92.31
85746;BME280;76186;47.590;19.194;2024-03-08T03:15:49;100157.97;;;4.21;91.28
85746;BME280;76186;47.590;19.194;2024-03-08T03:16:49;100151.91;;;4.08;90.16
85746;BME280;76186;47.590;19.194;2024-03-08T03:17:50;100151.47;;;4.17;90.26
85746;BME280;76186;47.590;19.194;2024-03-08T03:18:51;100155.22;;;4.16;90.63
85746;BME280;76186;47.590;19.194;2024-03-08T03:19:52;100152.53;;;4.16;90.16
85746;BME280;76186;47.590;19.194;2024-03-08T03:20:53;100157.75;;;4.27;89.83
85746;BME280;76186;47.590;19.194;2024-03-08T03:21:53;100148.41;;;4.08;90.52
85746;BME280;76186;47.590;19.194;2024-03-08T03:22:54;100155.22;;;4.16;91.06
85746;BME280;76186;47.590;19.194;2024-03-08T03:23:56;100150.34;;;4.13;90.87
85746;BME280;76186;47.590;19.194;2024-03-08T03:24:59;100151.66;;;4.10;91.25
85746;BME280;76186;47.590;19.194;2024-03-08T03:26:02;100140.88;;;4.10;91.11
85746;BME280;76186;47.590;19.194;2024-03-08T03:27:02;100150.84;;;4.10;91.63
85746;BME280;76186;47.590;19.194;2024-03-08T03:28:10;100156.72;;;4.06;91.94
85746;BME280;76186;47.590;19.194;2024-03-08T03:29:15;100153.53;;;4.10;92.12
85746;BME280;76186;47.590;19.194;2024-03-08T03:30:17;100154.72;;;4.19;91.01
85746;BME280;76186;47.590;19.194;2024-03-08T03:31:23;100152.56;;;4.21;90.55
85746;BME280;76186;47.590;19.194;2024-03-08T03:32:25;100159.03;;;4.20;90.08
85746;BME280;76186;47.590;19.194;2024-03-08T03:33:27;100154.97;;;4.17;90.41
85746;BME280;76186;47.590;19.194;2024-03-08T03:34:27;100155.63;;;4.29;90.59
85746;BME280;76186;47.590;19.194;2024-03-08T03:35:29;100149.81;;;4.16;90.88
85746;BME280;76186;47.590;19.194;2024-03-08T03:36:30;100150.03;;;4.09;90.68
85746;BME280;76186;47.590;19.194;2024-03-08T03:37:31;100144.81;;;3.97;91.86
85746;BME280;76186;47.590;19.194;2024-03-08T03:38:31;100156.97;;;4.05;91.70
85746;BME280;76186;47.590;19.194;2024-03-08T03:39:32;100158.47;;;4.18;90.39
85746;BME280;76186;47.590;19.194;2024-03-08T03:40:34;100160.34;;;4.17;90.59
85746;BME280;76186;47.590;19.194;2024-03-08T03:41:36;100154.41;;;4.15;90.57
85746;BME280;76186;47.590;19.194;2024-03-08T03:42:36;100156.34;;;4.20;90.65
85746;BME280;76186;47.590;19.194;2024-03-08T03:43:38;100156.22;;;4.10;91.06
85746;BME280;76186;47.590;19.194;2024-03-08T03:44:39;100159.22;;;4.13;90.91
85746;BME280;76186;47.590;19.194;2024-03-08T03:45:39;100154.41;;;4.15;90.36
85746;BME280;76186;47.590;19.194;2024-03-08T03:46:42;100157.34;;;4.14;90.67
85746;BME280;76186;47.590;19.194;2024-03-08T03:47:46;100156.53;;;4.13;91.18
85746;BME280;76186;47.590;19.194;2024-03-08T03:48:46;100158.97;;;4.15;91.15
85746;BME280;76186;47.590;19.194;2024-03-08T03:49:47;100154.47;;;4.20;90.73
85746;BME280;76186;47.590;19.194;2024-03-08T03:50:47;100160.34;;;4.17;91.18
85746;BME280;76186;47.590;19.194;2024-03-08T03:51:49;100155.53;;;4.19;90.82
85746;BME280;76186;47.590;19.194;2024-03-08T03:52:50;100157.91;;;4.16;91.29
85746;BME280;76186;47.590;19.194;2024-03-08T03:53:51;100153.13;;;4.23;91.36
85746;BME280;76186;47.590;19.194;2024-03-08T03:54:51;100151.56;;;4.27;90.50
85746;BME280;76186;47.590;19.194;2024-03-08T03:55:53;100144.44;;;4.16;90.11
85746;BME280;76186;47.590;19.194;2024-03-08T03:56:53;100152.00;;;4.19;90.54
85746;BME280;76186;47.590;19.194;2024-03-08T03:57:54;100152.88;;;4.24;90.06
85746;BME280;76186;47.590;19.194;2024-03-08T03:58:55;100156.91;;;4.22;89.69
85746;BME280;76186;47.590;19.194;2024-03-08T03:59:56;100153.59;;;4.15;90.50
85746;BME280;76186;47.590;19.194;2024-03-08T04:00:58;100155.66;;;4.07;90.49
85746;BME280;76186;47.590;19.194;2024-03-08T04:01:59;100149.69;;;4.00;90.07
85746;BME280;76186;47.590;19.194;2024-03-08T04:02:59;100150.38;;;4.18;90.84
85746;BME280;76186;47.590;19.194;2024-03-08T04:04:01;100155.53;;;4.19;89.79
85746;BME280;76186;47.590;19.194;2024-03-08T04:05:01;100158.59;;;4.06;90.87
85746;BME280;76186;47.590;19.194;2024-03-08T04:06:05;100156.59;;;4.18;89.81
85746;BME280;76186;47.590;19.194;2024-03-08T04:07:06;100156.44;;;4.30;89.86
85746;BME280;76186;47.590;19.194;2024-03-08T04:08:06;100153.03;;;4.13;90.49
85746;BME280;76186;47.590;19.194;2024-03-08T04:09:07;100157.66;;;4.17;89.82
85746;BME280;76186;47.590;19.194;2024-03-08T04:10:09;100152.47;;;4.11;91.66
85746;BME280;76186;47.590;19.194;2024-03-08T04:11:09;100151.47;;;4.17;90.79
85746;BME280;76186;47.590;19.194;2024-03-08T04:12:10;100156.84;;;4.17;90.42
85746;BME280;76186;47.590;19.194;2024-03-08T04:13:11;100158.47;;;4.18;90.78
85746;BME280;76186;47.590;19.194;2024-03-08T04:14:12;100156.28;;;4.15;90.40
85746;BME280;76186;47.590;19.194;2024-03-08T04:15:13;100160.09;;;4.19;90.74
85746;BME280;76186;47.590;19.194;2024-03-08T04:16:14;100158.97;;;4.15;91.06
85746;BME280;76186;47.590;19.194;2024-03-08T04:17:14;100157.34;;;4.14;90.53
85746;BME280;76186;47.590;19.194;2024-03-08T04:18:15;100157.97;;;4.21;90.35
85746;BME280;76186;47.590;19.194;2024-03-08T04:19:15;100159.53;;;4.17;90.88
85746;BME280;76186;47.590;19.194;2024-03-08T04:20:16;100158.56;;;4.28;90.36
85746;BME280;76186;47.590;19.194;2024-03-08T04:21:18;100162.34;;;4.27;90.96
85746;BME280;76186;47.590;19.194;2024-03-08T04:22:21;100160.28;;;4.39;89.10
85746;BME280;76186;47.590;19.194;2024-03-08T04:23:22;100156.44;;;4.30;90.18
85746;BME280;76186;47.590;19.194;2024-03-08T04:24:22;100158.25;;;4.24;90.79
85746;BME280;76186;47.590;19.194;2024-03-08T04:25:23;100151.25;;;4.23;90.38
85746;BME280;76186;47.590;19.194;2024-03-08T04:26:23;100155.91;;;4.06;91.10
85746;BME280;76186;47.590;19.194;2024-03-08T04:27:24;100154.84;;;4.07;91.62
85746;BME280;76186;47.590;19.194;2024-03-08T04:28:24;100161.09;;;4.13;90.47
85746;BME280;76186;47.590;19.194;2024-03-08T04:29:25;100163.84;;;4.18;90.40
85746;BME280;76186;47.590;19.194;2024-03-08T04:30:26;100159.47;;;4.12;91.35
85746;BME280;76186;47.590;19.194;2024-03-08T04:31:28;100157.84;;;4.11;91.30
85746;BME280;76186;47.590;19.194;2024-03-08T04:32:31;100163.84;;;4.18;91.24
85746;BME280;76186;47.590;19.194;2024-03-08T04:33:32;100155.78;;;4.18;90.80
85746;BME280;76186;47.590;19.194;2024-03-08T04:34:35;100163.97;;;4.28;90.62
85746;BME280;76186;47.590;19.194;2024-03-08T04:35:36;100161.16;;;4.18;90.79
85746;BME280;76186;47.590;19.194;2024-03-08T04:36:37;100157.47;;;4.24;90.11
85746;BME280;76186;47.590;19.194;2024-03-08T04:37:38;100167.03;;;4.15;90.30
85746;BME280;76186;47.590;19.194;2024-03-08T04:38:39;100162.22;;;4.17;91.20
85746;BME280;76186;47.590;19.194;2024-03-08T04:39:41;100168.03;;;4.30;90.46
85746;BME280;76186;47.590;19.194;2024-03-08T04:40:41;100162.28;;;4.22;90.17
85746;BME280;76186;47.590;19.194;2024-03-08T04:41:43;100165.03;;;4.27;91.28
85746;BME280;76186;47.590;19.194;2024-03-08T04:42:46;100172.03;;;4.28;90.06
85746;BME280;76186;47.590;19.194;2024-03-08T04:43:47;100166.59;;;4.23;89.88
85746;BME280;76186;47.590;19.194;2024-03-08T04:44:48;100168.47;;;4.22;90.46
85746;BME280;76186;47.590;19.194;2024-03-08T04:45:48;100170.91;;;4.24;90.96
85746;BME280;76186;47.590;19.194;2024-03-08T04:46:49;100167.09;;;4.20;91.11
85746;BME280;76186;47.590;19.194;2024-03-08T04:47:49;100172.75;;;4.18;91.46
85746;BME280;76186;47.590;19.194;2024-03-08T04:48:50;100171.88;;;4.13;92.42
85746;BME280;76186;47.590;19.194;2024-03-08T04:49:51;100167.47;;;4.01;91.14
85746;BME280;76186;47.590;19.194;2024-03-08T04:50:52;100172.88;;;4.06;90.70
85746;BME280;76186;47.590;19.194;2024-03-08T04:51:53;100170.75;;;4.08;90.39
85746;BME280;76186;47.590;19.194;2024-03-08T04:52:54;100177.19;;;4.07;90.49
85746;BME280;76186;47.590;19.194;2024-03-08T04:53:54;100177.25;;;4.13;91.01
85746;BME280;76186;47.590;19.194;2024-03-08T04:54:55;100174.56;;;4.13;91.50
85746;BME280;76186;47.590;19.194;2024-03-08T04:55:56;100172.19;;;4.16;91.11
85746;BME280;76186;47.590;19.194;2024-03-08T04:56:58;100176.50;;;4.17;92.07
85746;BME280;76186;47.590;19.194;2024-03-08T04:58:00;100174.63;;;4.18;91.26
85746;BME280;76186;47.590;19.194;2024-03-08T04:59:00;100176.25;;;4.19;91.40
85746;BME280;76186;47.590;19.194;2024-03-08T05:00:03;100176.25;;;4.19;91.34
85746;BME280;76186;47.590;19.194;2024-03-08T05:01:11;100167.16;;;4.25;89.77
85746;BME280;76186;47.590;19.194;2024-03-08T05:02:12;100176.25;;;4.19;90.73
85746;BME280;76186;47.590;19.194;2024-03-08T05:03:12;100171.16;;;4.22;91.11
85746;BME280;76186;47.590;19.194;2024-03-08T05:04:13;100174.88;;;4.16;91.10
85746;BME280;76186;47.590;19.194;2024-03-08T05:05:14;100174.56;;;4.13;90.90
85746;BME280;76186;47.590;19.194;2024-03-08T05:06:18;100171.06;;;4.12;91.55
85746;BME280;76186;47.590;19.194;2024-03-08T05:07:21;100171.69;;;4.19;91.12
85746;BME280;76186;47.590;19.194;2024-03-08T05:08:22;100172.19;;;4.16;90.56
85746;BME280;76186;47.590;19.194;2024-03-08T05:09:22;100168.41;;;4.17;90.67
85746;BME280;76186;47.590;19.194;2024-03-08T05:10:23;100164.16;;;4.21;90.91
85746;BME280;76186;47.590;19.194;2024-03-08T05:11:24;100174.00;;;4.11;91.74
85746;BME280;76186;47.590;19.194;2024-03-08T05:12:25;100170.75;;;4.08;91.74
85746;BME280;76186;47.590;19.194;2024-03-08T05:13:26;100170.03;;;4.18;90.57
85746;BME280;76186;47.590;19.194;2024-03-08T05:14:27;100174.13;;;4.21;90.88
85746;BME280;76186;47.590;19.194;2024-03-08T05:15:28;100167.03;;;4.15;91.28
85746;BME280;76186;47.590;19.194;2024-03-08T05:16:28;100176.75;;;4.16;91.77
85746;BME280;76186;47.590;19.194;2024-03-08T05:17:29;100172.47;;;4.20;91.34
85746;BME280;76186;47.590;19.194;2024-03-08T05:18:30;100169.22;;;4.18;90.91
85746;BME280;76186;47.590;19.194;2024-03-08T05:19:32;100169.13;;;4.07;91.52
85746;BME280;76186;47.590;19.194;2024-03-08T05:20:33;100166.44;;;4.07;91.46
85746;BME280;76186;47.590;19.194;2024-03-08T05:21:33;100176.91;;;4.04;91.62